Time;durP1;ratioP1;P1;durP2;ratioP2;P2;SDS_P1;SDS_P2;PMS_P1;PMS_P2;Temp;Humidity;BMP_temperature;BMP_pressure;BME280_temperature;BME280_humidity;BME280_pressure;Samples;Min_cycle;Max_cycle;Signal;HPM_P1;HPM_P2
2021/12/25 00:00:58;;;;;;;25.02;12.34;;;;;;;;;;360558;147;858813;-57
2021/12/25 00:02:05;;;;;;;19.45;11.19;;;;;;;;;;360383;147;864905;-57
2021/12/25 00:03:03;;;;;;;18.74;12.21;;;;;;;;;;357452;147;864889;-58
2021/12/25 00:04:05;;;;;;;15.03;10.03;;;;;;;;;;359523;149;859136;-57
2021/12/25 00:05:07;;;;;;;15.98;10.01;;;;;;;;;;359995;148;857320;-57
2021/12/25 00:06:09;;;;;;;20.73;12.87;;;;;;;;;;361033;147;857183;-57
2021/12/25 00:07:11;;;;;;;23.16;14.49;;;;;;;;;;359073;149;861383;-59
2021/12/25 00:08:12;;;;;;;18.40;9.34;;;;;;;;;;361590;147;858352;-57
2021/12/25 00:09:14;;;;;;;16.15;8.85;;;;;;;;;;360497;147;857206;-58
2021/12/25 00:10:16;;;;;;;15.55;8.35;;;;;;;;;;359731;147;866638;-57
2021/12/25 00:11:18;;;;;;;19.06;9.62;;;;;;;;;;363751;148;857101;-57
2021/12/25 00:12:19;;;;;;;18.60;10.75;;;;;;;;;;360858;147;858786;-57
2021/12/25 00:13:21;;;;;;;17.10;9.71;;;;;;;;;;361094;147;858204;-57
2021/12/25 00:14:22;;;;;;;24.68;13.57;;;;;;;;;;357835;149;859179;-57
2021/12/25 00:15:24;;;;;;;12.52;8.96;;;;;;;;;;360262;148;857126;-57
2021/12/25 00:16:26;;;;;;;12.49;8.05;;;;;;;;;;361240;147;857491;-58
2021/12/25 00:17:27;;;;;;;13.64;8.07;;;;;;;;;;359204;147;858650;-57
2021/12/25 00:18:29;;;;;;;19.05;9.56;;;;;;;;;;361728;147;865042;-58
2021/12/25 00:19:30;;;;;;;20.36;11.70;;;;;;;;;;360838;147;865001;-57
2021/12/25 00:20:32;;;;;;;14.62;9.03;;;;;;;;;;361591;147;861073;-58
2021/12/25 00:21:34;;;;;;;17.73;10.60;;;;;;;;;;361385;147;858311;-57
2021/12/25 00:22:36;;;;;;;14.63;9.17;;;;;;;;;;359910;148;860478;-57
2021/12/25 00:23:38;;;;;;;18.59;11.65;;;;;;;;;;362341;147;859048;-57
2021/12/25 00:24:43;;;;;;;13.03;8.53;;;;;;;;;;360665;148;864030;-59
2021/12/25 00:25:48;;;;;;;20.27;11.57;;;;;;;;;;361085;148;860050;-57
2021/12/25 00:26:57;;;;;;;21.48;12.27;;;;;;;;;;359920;147;858827;-57
2021/12/25 00:28:15;;;;;;;19.37;11.77;;;;;;;;;;361022;147;866557;-57
2021/12/25 00:29:17;;;;;;;13.34;8.61;;;;;;;;;;356770;148;857650;-57
2021/12/25 00:43:43;;;;;;;19.91;11.06;;;;;;;1.25;79.43;97723.11;371630;142;873378;-59
2021/12/25 00:44:45;;;;;;;14.29;9.10;;;;;;;1.16;79.44;97724.03;365716;146;857094;-58
2021/12/25 00:45:46;;;;;;;14.90;9.16;;;;;;;1.17;79.32;97723.17;363198;147;857206;-58
2021/12/25 00:46:48;;;;;;;12.37;8.27;;;;;;;1.18;79.30;97717.22;364477;147;864954;-58
2021/12/25 00:47:50;;;;;;;11.82;7.49;;;;;;;1.23;79.20;97727.38;365205;146;859002;-58
2021/12/25 00:48:52;;;;;;;14.89;8.14;;;;;;;1.24;79.68;97723.97;363774;146;866474;-56
2021/12/25 00:49:54;;;;;;;12.01;7.67;;;;;;;1.31;79.41;97713.73;362363;146;866647;-56
2021/12/25 00:50:55;;;;;;;15.27;9.47;;;;;;;1.42;79.00;97712.81;364439;145;857727;-59
2021/12/25 00:51:57;;;;;;;10.33;7.09;;;;;;;1.53;78.75;97715.27;363422;145;859242;-59
2021/12/25 00:52:59;;;;;;;11.79;6.96;;;;;;;1.64;78.39;97722.84;363912;147;865838;-60
2021/12/25 00:54:01;;;;;;;14.68;8.55;;;;;;;1.74;78.11;97721.91;364271;146;866653;-59
2021/12/25 00:55:05;;;;;;;13.96;8.85;;;;;;;1.82;77.95;97727.80;365204;146;864894;-57
2021/12/25 00:56:07;;;;;;;10.76;6.12;;;;;;;1.95;77.86;97720.03;364444;146;857168;-57
2021/12/25 00:57:09;;;;;;;10.57;6.77;;;;;;;2.08;77.13;97724.16;363563;146;859710;-57
2021/12/25 00:58:10;;;;;;;11.47;7.79;;;;;;;2.21;76.74;97714.69;363279;146;857277;-58
2021/12/25 00:59:12;;;;;;;12.51;8.07;;;;;;;2.29;76.20;97728.22;364554;146;858451;-59
2021/12/25 01:00:14;;;;;;;12.92;8.71;;;;;;;;;;363035;147;857562;-58
2021/12/25 01:01:16;;;;;;;13.75;8.65;;;;;;;;;;363109;146;858992;-58
2021/12/25 01:02:18;;;;;;;14.27;7.46;;;;;;;;;;365384;146;859358;-58
2021/12/25 01:03:19;;;;;;;12.74;7.61;;;;;;;;;;359183;147;866747;-57
2021/12/25 01:08:00;;;;;;;12.84;8.43;;;;;;;2.50;75.05;97718.62;370296;142;882230;-58
2021/12/25 01:09:01;;;;;;;13.49;8.77;;;;;;;;;;363433;146;858439;-59
2021/12/25 01:10:06;;;;;;;13.19;7.91;;;;;;;;;;366080;146;857116;-59
2021/12/25 01:11:07;;;;;;;14.79;9.45;;;;;;;;;;365139;147;864927;-59
2021/12/25 01:12:09;;;;;;;15.61;10.64;;;;;;;;;;363254;146;857502;-59
2021/12/25 01:13:24;;;;;;;16.85;9.27;;;;;;;;;;364606;146;866080;-59
2021/12/25 01:14:35;;;;;;;18.21;10.48;;;;;;;;;;363763;147;859435;-57
2021/12/25 01:15:45;;;;;;;18.67;11.44;;;;;;;;;;362736;146;857231;-58
2021/12/25 01:17:08;;;;;;;17.54;11.29;;;;;;;;;;363496;146;858985;-55
2021/12/25 01:19:38;;;;;;;20.72;11.54;;;;;;;;;;362537;145;857156;-57
2021/12/25 01:20:40;;;;;;;20.33;11.77;;;;;;;;;;360843;147;865761;-57
2021/12/25 01:23:29;;;;;;;19.03;12.46;;;;;;;;;;354813;149;858116;-57
2021/12/25 01:24:07;;;;;;;19.09;12.24;;;;;;;;;;357847;147;860002;-57
2021/12/25 01:25:15;;;;;;;17.64;10.36;;;;;;;;;;359636;146;858964;-57
2021/12/25 01:27:43;;;;;;;20.04;12.08;;;;;;;;;;360626;147;858606;-57
2021/12/25 01:29:37;;;;;;;;;;;;;;;;;;360508;147;856753;-57
2021/12/25 01:30:51;;;;;;;19.71;11.50;;;;;;;;;;357012;148;857663;-57
2021/12/25 01:32:13;;;;;;;17.59;11.11;;;;;;;;;;356880;148;858409;-57
2021/12/25 01:33:29;;;;;;;19.23;12.44;;;;;;;;;;355431;148;857107;-57
2021/12/25 01:34:36;;;;;;;18.88;11.92;;;;;;;;;;358636;148;857620;-57
2021/12/25 01:35:32;;;;;;;15.66;9.12;;;;;;;;;;359773;148;857032;-57
2021/12/25 01:41:41;;;;;;;15.89;10.44;;;;;;;;;;354661;147;857399;-59
2021/12/25 01:47:48;;;;;;;19.53;11.27;;;;;;;;;;358641;147;857706;-57
2021/12/25 01:48:48;;;;;;;16.59;10.59;;;;;;;;;;358501;148;859668;-57
2021/12/25 01:49:51;;;;;;;15.59;10.10;;;;;;;;;;357408;148;859138;-57
2021/12/25 01:50:53;;;;;;;16.82;9.92;;;;;;;;;;359421;147;866418;-57
2021/12/25 01:51:54;;;;;;;17.92;10.87;;;;;;;;;;360409;147;856253;-57
2021/12/25 01:52:56;;;;;;;15.99;9.51;;;;;;;;;;362378;148;859553;-57
2021/12/25 01:53:58;;;;;;;12.91;8.44;;;;;;;;;;358529;148;857394;-57
2021/12/25 01:55:00;;;;;;;18.14;10.16;;;;;;;;;;357245;149;864998;-58
2021/12/25 01:56:02;;;;;;;15.57;8.91;;;;;;;;;;359012;148;865018;-57
2021/12/25 01:57:04;;;;;;;14.82;9.31;;;;;;;;;;359734;147;864966;-58
2021/12/25 01:58:06;;;;;;;12.96;8.15;;;;;;;;;;358708;147;859395;-57
2021/12/25 01:59:07;;;;;;;14.29;8.75;;;;;;;;;;358694;148;865043;-57
2021/12/25 02:00:14;;;;;;;11.05;7.29;;;;;;;;;;358019;148;857433;-58
2021/12/25 02:01:16;;;;;;;11.78;7.34;;;;;;;;;;358655;147;858903;-58
2021/12/25 02:02:17;;;;;;;12.81;8.22;;;;;;;;;;360116;149;859112;-56
2021/12/25 02:03:19;;;;;;;9.84;6.72;;;;;;;;;;355811;150;864917;-57
2021/12/25 02:04:21;;;;;;;8.33;5.63;;;;;;;;;;358649;148;857293;-57
2021/12/25 02:05:23;;;;;;;9.65;6.34;;;;;;;;;;359004;148;857250;-57
2021/12/25 02:06:24;;;;;;;11.17;7.22;;;;;;;;;;359182;148;857103;-57
2021/12/25 02:07:26;;;;;;;8.77;5.50;;;;;;;;;;357170;147;859288;-57
2021/12/25 02:08:27;;;;;;;9.49;6.02;;;;;;;;;;353575;150;860011;-57
2021/12/25 02:09:29;;;;;;;9.92;6.26;;;;;;;;;;353679;149;859385;-58
2021/12/25 02:10:31;;;;;;;11.33;6.48;;;;;;;;;;352995;150;858460;-58
2021/12/25 02:11:32;;;;;;;7.94;4.73;;;;;;;;;;351434;148;865191;-57
2021/12/25 02:12:34;;;;;;;7.78;5.46;;;;;;;;;;351999;150;861771;-57
2021/12/25 02:13:35;;;;;;;8.84;5.92;;;;;;;;;;356732;150;865409;-57
2021/12/25 02:14:37;;;;;;;7.49;4.89;;;;;;;;;;352751;150;866989;-56
2021/12/25 02:15:46;;;;;;;11.02;7.11;;;;;;;;;;349781;149;865100;-57
2021/12/25 02:16:58;;;;;;;8.20;5.21;;;;;;;;;;351277;149;858508;-57
2021/12/25 02:19:12;;;;;;;10.92;6.67;;;;;;;;;;351446;149;858177;-58
2021/12/25 02:20:11;;;;;;;12.60;6.44;;;;;;;;;;352847;150;859412;-58
2021/12/25 02:21:19;;;;;;;11.19;6.29;;;;;;;;;;349205;149;859836;-58
2021/12/25 02:22:18;;;;;;;12.90;6.17;;;;;;;;;;351667;150;864853;-58
2021/12/25 02:23:22;;;;;;;7.66;5.64;;;;;;;;;;352375;150;859076;-58
2021/12/25 02:24:24;;;;;;;20.32;5.88;;;;;;;;;;354240;152;859217;-58
2021/12/25 02:25:26;;;;;;;7.83;4.56;;;;;;;;;;350966;150;858108;-58
2021/12/25 02:26:28;;;;;;;9.36;6.29;;;;;;;;;;352055;149;866523;-58
2021/12/25 02:27:29;;;;;;;10.74;6.50;;;;;;;;;;352824;152;858271;-59
2021/12/25 02:28:31;;;;;;;8.47;5.69;;;;;;;;;;352426;149;859488;-58
2021/12/25 02:29:32;;;;;;;7.67;4.55;;;;;;;;;;353325;150;858950;-58
2021/12/25 02:30:34;;;;;;;7.43;4.80;;;;;;;;;;353623;150;856428;-58
2021/12/25 02:31:36;;;;;;;6.72;5.11;;;;;;;;;;353241;150;864710;-58
2021/12/25 02:32:37;;;;;;;9.06;5.57;;;;;;;;;;353529;150;856228;-58
2021/12/25 02:33:39;;;;;;;8.80;6.03;;;;;;;;;;353703;149;856824;-58
2021/12/25 02:34:41;;;;;;;10.41;6.21;;;;;;;;;;353710;152;856631;-58
2021/12/25 02:35:43;;;;;;;7.90;5.27;;;;;;;;;;352742;151;856025;-58
2021/12/25 02:36:44;;;;;;;8.72;5.99;;;;;;;;;;353668;150;856637;-58
2021/12/25 02:37:46;;;;;;;9.84;5.72;;;;;;;;;;353522;150;856057;-59
2021/12/25 02:38:47;;;;;;;8.05;5.11;;;;;;;;;;352462;150;863993;-58
2021/12/25 02:39:50;;;;;;;10.16;5.88;;;;;;;;;;352439;149;857040;-58
2021/12/25 02:40:52;;;;;;;10.75;5.93;;;;;;;;;;352726;150;863726;-58
2021/12/25 02:41:53;;;;;;;8.24;5.66;;;;;;;;;;353215;150;863851;-58
2021/12/25 02:42:55;;;;;;;8.61;5.96;;;;;;;;;;352914;149;856338;-58
2021/12/25 02:43:56;;;;;;;7.24;5.49;;;;;;;;;;353584;149;856238;-58
2021/12/25 02:44:58;;;;;;;8.44;5.83;;;;;;;;;;356121;150;856013;-58
2021/12/25 02:48:30;;;;;;;7.96;4.91;;;;;;;3.15;75.11;97812.45;374831;142;881760;-58
2021/12/25 02:49:32;;;;;;;5.73;3.79;;;;;;;3.02;75.01;97796.40;364827;144;857698;-60
2021/12/25 02:50:35;;;;;;;5.97;4.33;;;;;;;3.09;75.09;97811.66;363928;145;857738;-59
2021/12/25 02:51:36;;;;;;;6.90;4.33;;;;;;;3.07;75.03;97821.92;364956;147;857357;-57
2021/12/25 02:52:39;;;;;;;6.61;4.15;;;;;;;3.16;74.95;97815.83;363396;146;856767;-58
2021/12/25 02:53:40;;;;;;;6.12;3.98;;;;;;;3.21;74.64;97816.66;363604;145;856991;-57
2021/12/25 02:54:43;;;;;;;7.02;4.23;;;;;;;3.25;74.27;97822.56;364625;145;857228;-57
2021/12/25 02:55:45;;;;;;;6.41;4.63;;;;;;;3.40;74.33;97819.80;363440;146;857286;-57
2021/12/25 02:56:48;;;;;;;6.19;3.81;;;;;;;3.53;74.08;97805.14;362979;146;864713;-57
2021/12/25 02:57:51;;;;;;;5.19;2.69;;;;;;;3.56;73.23;97812.77;365148;145;857138;-57
2021/12/25 02:58:53;;;;;;;6.59;4.44;;;;;;;3.69;73.37;97802.36;365161;146;857710;-57
2021/12/25 02:59:54;;;;;;;5.81;3.68;;;;;;;3.69;72.73;97804.92;364052;145;858232;-57
2021/12/25 03:00:59;;;;;;;5.75;4.04;;;;;;;3.71;72.50;97803.19;366416;144;865119;-57
2021/12/25 03:02:08;;;;;;;7.89;4.17;;;;;;;3.75;72.30;97803.12;363724;146;856115;-57
2021/12/25 03:03:10;;;;;;;4.05;2.74;;;;;;;;;;362920;146;857764;-57
2021/12/25 03:04:12;;;;;;;5.24;3.59;;;;;;;;;;363379;144;857802;-58
2021/12/25 03:05:14;;;;;;;5.20;4.32;;;;;;;;;;364409;145;860602;-58
2021/12/25 03:06:17;;;;;;;5.98;4.37;;;;;;;;;;360270;148;859606;-58
2021/12/25 03:07:18;;;;;;;7.25;3.94;;;;;;;;;;362914;145;858029;-57
2021/12/25 03:08:20;;;;;;;5.25;3.54;;;;;;;;;;362716;144;858577;-58
2021/12/25 03:09:21;;;;;;;5.26;4.04;;;;;;;;;;363480;145;857065;-58
2021/12/25 03:10:24;;;;;;;8.14;4.29;;;;;;;;;;364139;144;864834;-58
2021/12/25 03:11:26;;;;;;;6.37;4.93;;;;;;;;;;363144;144;858218;-58
2021/12/25 03:12:35;;;;;;;5.26;4.21;;;;;;;;;;364387;146;859165;-58
2021/12/25 03:13:34;;;;;;;7.04;4.95;;;;;;;;;;365702;144;857224;-58
2021/12/25 03:14:38;;;;;;;6.60;4.09;;;;;;;;;;364434;144;860502;-58
2021/12/25 03:15:46;;;;;;;7.18;4.58;;;;;;;;;;363557;147;859384;-58
2021/12/25 03:16:47;;;;;;;6.52;4.52;;;;;;;;;;365646;147;857549;-58
2021/12/25 03:17:49;;;;;;;7.74;5.06;;;;;;;;;;364089;146;858195;-58
2021/12/25 03:28:07;;;;;;;5.05;3.42;;;;;;;3.39;73.47;97864.16;373580;142;882969;-58
2021/12/25 03:29:09;;;;;;;5.25;3.54;;;;;;;3.05;74.20;97867.95;365902;145;857190;-59
2021/12/25 03:30:14;;;;;;;4.72;3.72;;;;;;;3.12;74.00;97872.99;364100;146;858916;-59
2021/12/25 03:31:18;;;;;;;4.39;3.54;;;;;;;3.15;74.00;97878.94;363317;146;857756;-59
2021/12/25 03:32:19;;;;;;;7.78;3.98;;;;;;;3.12;74.04;97873.85;364606;145;857608;-57
2021/12/25 03:33:21;;;;;;;5.89;3.67;;;;;;;3.25;73.94;97868.59;365395;147;864788;-58
2021/12/25 03:34:23;;;;;;;4.96;3.64;;;;;;;3.30;73.63;97877.92;366158;145;857619;-57
2021/12/25 03:35:24;;;;;;;5.74;3.84;;;;;;;3.33;73.76;97897.48;361431;145;864875;-57
2021/12/25 03:36:27;;;;;;;7.42;3.35;;;;;;;3.43;73.44;97895.67;363947;145;864801;-57
2021/12/25 03:37:28;;;;;;;5.37;3.67;;;;;;;3.51;73.09;97898.98;361605;145;859367;-59
2021/12/25 03:38:30;;;;;;;5.76;3.71;;;;;;;3.64;72.61;97895.41;363310;144;858135;-59
2021/12/25 03:39:32;;;;;;;6.18;3.79;;;;;;;3.71;72.20;97896.19;364263;144;865960;-58
2021/12/25 03:40:34;;;;;;;6.01;3.31;;;;;;;3.82;72.08;97890.07;360896;146;858317;-59
2021/12/25 03:41:36;;;;;;;4.75;3.12;;;;;;;3.78;72.35;97908.03;361531;146;859151;-57
2021/12/25 03:42:38;;;;;;;6.44;3.68;;;;;;;3.93;72.37;97909.52;362529;145;856305;-58
2021/12/25 03:43:41;;;;;;;6.43;3.69;;;;;;;3.69;72.33;97910.69;364561;147;864959;-57
2021/12/25 03:44:42;;;;;;;6.03;3.33;;;;;;;3.93;72.54;97924.88;364344;144;856513;-57
2021/12/25 03:45:44;;;;;;;5.46;3.95;;;;;;;3.81;71.83;97925.05;361627;146;857227;-57
2021/12/25 03:46:46;;;;;;;6.20;4.12;;;;;;;3.89;72.30;97933.47;360056;145;864746;-57
2021/12/25 03:47:50;;;;;;;5.49;3.72;;;;;;;3.97;72.15;97940.20;362274;147;858094;-57
2021/12/25 03:57:43;;;;;;;;;;;;;;;;;;362929;148;857523;-57
2021/12/25 03:58:40;;;;;;;5.77;3.58;;;;;;;;;;355771;148;857345;-57
2021/12/25 03:59:42;;;;;;;4.83;3.63;;;;;;;;;;359399;148;857161;-57
2021/12/25 04:00:46;;;;;;;6.25;3.73;;;;;;;;;;357753;148;856904;-57
2021/12/25 04:01:55;;;;;;;4.79;2.84;;;;;;;;;;358636;149;858954;-57
2021/12/25 04:02:56;;;;;;;5.37;3.41;;;;;;;;;;358726;148;866005;-57
2021/12/25 04:04:07;;;;;;;5.97;4.18;;;;;;;;;;358157;147;864854;-57
2021/12/25 04:05:05;;;;;;;6.98;4.64;;;;;;;;;;357716;149;858251;-57
2021/12/25 04:06:10;;;;;;;4.56;2.65;;;;;;;;;;359316;147;859214;-57
2021/12/25 04:07:28;;;;;;;4.92;3.29;;;;;;;;;;359326;147;858539;-57
2021/12/25 04:08:16;;;;;;;4.28;3.31;;;;;;;;;;355124;148;857259;-57
2021/12/25 04:09:30;;;;;;;4.49;2.92;;;;;;;;;;359211;148;857606;-57
2021/12/25 04:10:28;;;;;;;3.99;2.95;;;;;;;;;;357621;148;858712;-57
2021/12/25 04:11:32;;;;;;;4.46;2.35;;;;;;;;;;358466;148;858571;-57
2021/12/25 04:12:33;;;;;;;3.69;2.91;;;;;;;;;;359029;148;857437;-58
2021/12/25 04:13:34;;;;;;;2.62;2.09;;;;;;;;;;360372;148;856743;-59
2021/12/25 04:14:36;;;;;;;3.41;2.03;;;;;;;;;;357303;147;859688;-57
2021/12/25 04:15:37;;;;;;;3.16;2.26;;;;;;;;;;358051;148;857277;-58
2021/12/25 04:16:39;;;;;;;4.32;2.74;;;;;;;;;;359066;148;864841;-58
2021/12/25 04:17:40;;;;;;;3.83;2.71;;;;;;;;;;360740;147;866238;-57
2021/12/25 04:18:42;;;;;;;3.87;2.69;;;;;;;;;;359042;148;864541;-57
2021/12/25 04:19:43;;;;;;;4.24;2.67;;;;;;;;;;358595;150;859134;-58
2021/12/25 04:20:45;;;;;;;3.79;2.55;;;;;;;;;;360052;147;858420;-57
2021/12/25 04:22:15;;;;;;;3.39;2.25;;;;;;;;;;359157;148;864758;-56
2021/12/25 04:23:04;;;;;;;3.12;2.17;;;;;;;;;;352340;151;856194;-58
2021/12/25 04:24:03;;;;;;;2.91;2.06;;;;;;;;;;357525;147;857195;-58
2021/12/25 04:25:05;;;;;;;2.89;1.83;;;;;;;;;;359309;147;858425;-58
2021/12/25 04:26:07;;;;;;;2.99;2.05;;;;;;;;;;358143;148;859333;-56
2021/12/25 04:27:12;;;;;;;2.19;1.57;;;;;;;;;;357934;148;858950;-56
2021/12/25 04:28:19;;;;;;;3.36;2.19;;;;;;;;;;359817;147;857255;-57
2021/12/25 04:29:35;;;;;;;5.04;2.33;;;;;;;;;;359047;148;859636;-57
2021/12/25 04:30:30;;;;;;;1.93;1.58;;;;;;;;;;357196;148;858803;-57
2021/12/25 04:32:13;;;;;;;3.25;2.51;;;;;;;;;;359877;147;858885;-56
2021/12/25 04:50:09;;;;;;;3.36;2.14;;;;;;;;;;359141;147;860586;-57
2021/12/25 05:02:57;;;;;;;3.95;2.39;;;;;;;;;;358812;147;857174;-57
2021/12/25 05:03:50;;;;;;;2.33;1.79;;;;;;;;;;356084;148;865591;-57
2021/12/25 05:04:54;;;;;;;4.38;2.62;;;;;;;;;;358728;148;858663;-58
2021/12/25 05:05:53;;;;;;;3.62;2.58;;;;;;;;;;359391;148;857285;-58
2021/12/25 05:06:55;;;;;;;2.90;2.10;;;;;;;;;;358435;147;858641;-58
2021/12/25 05:07:57;;;;;;;5.32;2.78;;;;;;;;;;358909;148;859114;-59
2021/12/25 05:08:58;;;;;;;4.95;3.10;;;;;;;;;;361356;147;865301;-58
2021/12/25 05:10:00;;;;;;;6.94;4.63;;;;;;;;;;358092;147;865433;-60
2021/12/25 05:11:01;;;;;;;3.84;2.09;;;;;;;;;;358224;148;865047;-59
2021/12/25 05:12:03;;;;;;;4.50;3.34;;;;;;;;;;359273;149;857357;-56
2021/12/25 05:13:05;;;;;;;3.03;2.67;;;;;;;;;;357891;147;860421;-56
2021/12/25 05:14:06;;;;;;;3.45;2.96;;;;;;;;;;356993;148;859169;-59
2021/12/25 05:15:08;;;;;;;4.52;2.64;;;;;;;;;;355202;148;857445;-57
2021/12/25 05:16:10;;;;;;;6.33;3.92;;;;;;;;;;359791;149;857767;-59
2021/12/25 05:17:13;;;;;;;3.02;2.47;;;;;;;;;;358607;147;859157;-56
2021/12/25 05:18:15;;;;;;;6.38;3.82;;;;;;;;;;360594;148;865111;-56
2021/12/25 05:19:16;;;;;;;5.41;3.61;;;;;;;;;;359138;149;857682;-57
2021/12/25 05:20:18;;;;;;;4.27;2.59;;;;;;;;;;357463;148;864844;-56
2021/12/25 05:21:20;;;;;;;2.29;1.86;;;;;;;;;;358818;148;865286;-55
2021/12/25 05:22:22;;;;;;;3.57;2.49;;;;;;;;;;360950;148;857172;-56
2021/12/25 05:23:24;;;;;;;5.57;3.77;;;;;;;;;;358908;147;864863;-55
2021/12/25 05:24:27;;;;;;;4.87;2.96;;;;;;;;;;357975;147;857081;-55
2021/12/25 05:25:29;;;;;;;5.18;3.00;;;;;;;;;;358569;149;865334;-56
2021/12/25 05:26:31;;;;;;;3.93;2.61;;;;;;;;;;359268;149;857464;-57
2021/12/25 05:27:32;;;;;;;5.66;2.89;;;;;;;;;;357627;147;857207;-55
2021/12/25 05:28:42;;;;;;;4.60;3.11;;;;;;;;;;357125;147;856411;-57
2021/12/25 05:29:46;;;;;;;5.19;3.39;;;;;;;;;;358385;148;856726;-56
2021/12/25 05:30:47;;;;;;;6.73;4.07;;;;;;;;;;357870;148;856515;-55
2021/12/25 05:31:48;;;;;;;3.67;2.88;;;;;;;;;;358133;148;866140;-55
2021/12/25 05:32:50;;;;;;;3.22;2.53;;;;;;;;;;358760;149;865811;-54
2021/12/25 05:33:51;;;;;;;4.27;2.68;;;;;;;;;;357208;148;865226;-55
2021/12/25 05:34:53;;;;;;;3.79;2.59;;;;;;;;;;357356;147;857303;-54
2021/12/25 05:35:54;;;;;;;4.12;2.68;;;;;;;;;;358704;148;859171;-55
2021/12/25 05:36:56;;;;;;;3.24;2.36;;;;;;;;;;357971;148;859038;-58
2021/12/25 05:37:59;;;;;;;4.41;2.71;;;;;;;;;;356679;147;864778;-57
2021/12/25 05:39:01;;;;;;;3.92;2.53;;;;;;;;;;357837;148;857477;-59
2021/12/25 05:40:03;;;;;;;4.45;2.89;;;;;;;;;;357655;148;857167;-55
2021/12/25 05:41:05;;;;;;;4.93;2.94;;;;;;;;;;360123;147;864932;-56
2021/12/25 05:42:07;;;;;;;5.51;3.31;;;;;;;;;;360100;147;857259;-55
2021/12/25 05:43:08;;;;;;;2.92;2.54;;;;;;;;;;357075;148;857855;-55
2021/12/25 05:44:10;;;;;;;3.24;2.58;;;;;;;;;;354706;148;858194;-56
2021/12/25 05:45:12;;;;;;;3.40;2.61;;;;;;;;;;358750;147;857370;-56
2021/12/25 05:46:15;;;;;;;3.50;2.52;;;;;;;;;;357334;148;857291;-56
2021/12/25 05:47:17;;;;;;;4.31;2.97;;;;;;;;;;359313;147;859159;-55
2021/12/25 05:48:19;;;;;;;4.47;3.23;;;;;;;;;;357696;147;864709;-56
2021/12/25 05:49:20;;;;;;;3.63;2.51;;;;;;;;;;359021;148;857517;-53
2021/12/25 05:50:23;;;;;;;4.47;2.96;;;;;;;;;;360029;148;866506;-57
2021/12/25 05:51:24;;;;;;;2.88;2.17;;;;;;;;;;360399;147;858698;-57
2021/12/25 05:52:26;;;;;;;3.23;2.68;;;;;;;;;;357883;147;864670;-58
2021/12/25 05:53:27;;;;;;;5.68;2.85;;;;;;;;;;357190;148;859769;-56
2021/12/25 05:54:29;;;;;;;4.85;2.86;;;;;;;;;;356641;148;857556;-57
2021/12/25 05:55:30;;;;;;;4.90;3.16;;;;;;;;;;358128;147;857162;-58
2021/12/25 05:56:32;;;;;;;6.68;2.91;;;;;;;;;;357970;147;866905;-55
2021/12/25 05:57:33;;;;;;;4.76;2.99;;;;;;;;;;358846;150;864834;-56
2021/12/25 05:58:35;;;;;;;4.89;3.46;;;;;;;;;;358969;148;857399;-55
2021/12/25 05:59:37;;;;;;;4.80;2.88;;;;;;;;;;359472;148;858982;-55
2021/12/25 06:08:15;;;;;;;2.63;2.29;;;;;;;1.31;77.12;98312.06;371477;142;868854;-58
2021/12/25 06:09:18;;;;;;;3.39;2.91;;;;;;;1.18;76.27;98320.52;364282;146;857693;-56
2021/12/25 06:10:20;;;;;;;4.34;2.59;;;;;;;1.19;76.39;98319.67;363239;146;857176;-56
2021/12/25 06:11:23;;;;;;;4.59;3.03;;;;;;;0.99;74.83;98325.55;361296;146;858569;-56
2021/12/25 06:12:26;;;;;;;4.23;2.69;;;;;;;1.07;74.99;98325.59;363536;146;857732;-56
2021/12/25 06:13:28;;;;;;;3.31;2.20;;;;;;;1.19;75.66;98338.38;363056;146;857289;-56
2021/12/25 06:14:29;;;;;;;4.17;2.09;;;;;;;1.28;75.48;98340.97;363049;146;863649;-57
2021/12/25 06:15:31;;;;;;;3.72;2.29;;;;;;;1.28;74.49;98338.41;364311;146;856809;-57
2021/12/25 06:16:33;;;;;;;3.56;2.17;;;;;;;1.29;73.64;98349.45;365544;146;856160;-56
2021/12/25 06:17:35;;;;;;;3.42;2.18;;;;;;;1.26;73.31;98350.31;362706;146;863646;-56
2021/12/25 06:18:38;;;;;;;3.76;2.44;;;;;;;1.44;73.52;98349.50;365438;147;863888;-55
2021/12/25 06:19:40;;;;;;;4.01;2.62;;;;;;;1.47;73.11;98356.33;365156;147;863701;-55
2021/12/25 06:20:41;;;;;;;4.09;3.06;;;;;;;1.56;71.44;98342.73;364888;147;856150;-57
2021/12/25 06:21:43;;;;;;;4.50;2.74;;;;;;;;;;360394;147;864257;-56
2021/12/25 06:22:45;;;;;;;5.55;3.31;;;;;;;;;;358034;150;863624;-58
2021/12/25 06:23:47;;;;;;;3.83;2.94;;;;;;;;;;357648;148;856143;-56
2021/12/25 06:24:49;;;;;;;5.61;3.51;;;;;;;;;;365283;146;856200;-56
2021/12/25 06:25:51;;;;;;;4.33;2.89;;;;;;;;;;365400;147;859018;-56
2021/12/25 06:26:53;;;;;;;4.37;2.77;;;;;;;;;;361772;147;864159;-55
2021/12/25 06:27:55;;;;;;;5.44;3.75;;;;;;;;;;355785;149;856241;-56
2021/12/25 06:28:56;;;;;;;5.12;3.31;;;;;;;;;;354193;149;856953;-56
2021/12/25 06:29:58;;;;;;;6.83;3.81;;;;;;;;;;354100;150;863767;-56
2021/12/25 06:30:59;;;;;;;5.54;3.27;;;;;;;;;;356149;149;863748;-56
2021/12/25 06:32:01;;;;;;;5.36;3.86;;;;;;;;;;356794;149;864379;-56
2021/12/25 06:33:02;;;;;;;7.16;4.14;;;;;;;;;;355980;149;857541;-56
2021/12/25 06:34:06;;;;;;;4.92;3.74;;;;;;;;;;354808;147;856135;-56
2021/12/25 06:35:08;;;;;;;7.72;4.71;;;;;;;;;;358181;149;856474;-56
2021/12/25 06:36:10;;;;;;;5.44;3.53;;;;;;;;;;357042;150;863542;-56
2021/12/25 06:37:11;;;;;;;5.87;3.54;;;;;;;;;;357802;150;856145;-56
2021/12/25 06:38:13;;;;;;;6.42;4.16;;;;;;;;;;356778;149;856768;-56
2021/12/25 06:39:16;;;;;;;5.92;3.85;;;;;;;;;;354979;149;856091;-56
2021/12/25 06:40:19;;;;;;;6.99;4.06;;;;;;;;;;356024;150;856456;-56
2021/12/25 06:41:21;;;;;;;5.36;3.85;;;;;;;;;;357442;147;856596;-58
2021/12/25 06:42:22;;;;;;;6.91;4.13;;;;;;;;;;359081;149;856985;-56
2021/12/25 06:43:24;;;;;;;5.71;3.91;;;;;;;;;;354674;150;856418;-56
2021/12/25 06:44:25;;;;;;;8.28;4.71;;;;;;;;;;353115;150;856624;-56
2021/12/25 06:45:27;;;;;;;5.64;3.81;;;;;;;;;;356893;149;856668;-56
2021/12/25 06:46:28;;;;;;;7.95;4.09;;;;;;;;;;355925;149;856663;-56
2021/12/25 06:47:30;;;;;;;5.31;3.67;;;;;;;;;;357217;147;863716;-56
2021/12/25 06:48:32;;;;;;;7.52;4.43;;;;;;;;;;356683;147;856303;-60
2021/12/25 06:49:33;;;;;;;6.61;3.81;;;;;;;;;;357358;147;864465;-56
2021/12/25 06:50:35;;;;;;;6.18;3.58;;;;;;;;;;357826;147;857413;-57
2021/12/25 06:51:36;;;;;;;6.34;3.84;;;;;;;;;;357718;150;857404;-57
2021/12/25 06:52:38;;;;;;;6.40;4.34;;;;;;;;;;356042;147;856422;-56
2021/12/25 06:53:39;;;;;;;7.14;4.01;;;;;;;;;;354885;149;856615;-56
2021/12/25 06:54:41;;;;;;;7.32;4.35;;;;;;;;;;356360;147;856974;-57
2021/12/25 06:55:42;;;;;;;8.16;4.90;;;;;;;;;;353474;149;857832;-56
2021/12/25 06:56:45;;;;;;;5.10;3.05;;;;;;;;;;356297;147;863633;-56
2021/12/25 06:57:53;;;;;;;8.74;4.59;;;;;;;;;;356883;149;864218;-56
2021/12/25 06:58:50;;;;;;;6.60;4.31;;;;;;;;;;356133;147;856671;-56
2021/12/25 06:59:52;;;;;;;5.29;3.78;;;;;;;;;;355940;147;856035;-56
2021/12/25 07:00:53;;;;;;;8.58;4.59;;;;;;;;;;355856;149;856521;-56
2021/12/25 07:01:55;;;;;;;7.68;4.62;;;;;;;;;;357528;149;856547;-56
2021/12/25 07:02:57;;;;;;;8.56;4.36;;;;;;;;;;355716;149;856939;-57
2021/12/25 07:03:59;;;;;;;6.79;4.62;;;;;;;;;;356447;147;856229;-56
2021/12/25 07:05:00;;;;;;;6.84;4.71;;;;;;;;;;355254;149;856152;-57
2021/12/25 07:06:02;;;;;;;8.16;4.96;;;;;;;;;;357441;150;863894;-56
2021/12/25 07:07:03;;;;;;;6.91;4.28;;;;;;;;;;357090;150;863647;-56
2021/12/25 07:08:05;;;;;;;7.59;4.68;;;;;;;;;;358651;147;856104;-56
2021/12/25 07:09:07;;;;;;;6.66;4.34;;;;;;;;;;358089;147;856732;-57
2021/12/25 07:10:09;;;;;;;6.57;4.35;;;;;;;;;;355903;150;863654;-58
2021/12/25 07:11:10;;;;;;;6.96;4.14;;;;;;;;;;357152;147;856277;-56
2021/12/25 07:12:12;;;;;;;6.59;4.57;;;;;;;;;;356950;147;863706;-56
2021/12/25 07:13:18;;;;;;;7.86;4.28;;;;;;;;;;357383;150;857265;-61
2021/12/25 07:14:17;;;;;;;7.11;4.78;;;;;;;;;;356411;147;856207;-56
2021/12/25 07:15:18;;;;;;;9.02;5.03;;;;;;;;;;358185;147;856068;-56
2021/12/25 07:16:20;;;;;;;7.74;4.71;;;;;;;;;;356846;149;863660;-56
2021/12/25 07:17:22;;;;;;;8.16;5.26;;;;;;;;;;355472;149;863675;-56
2021/12/25 07:18:23;;;;;;;8.21;4.81;;;;;;;;;;356034;150;863951;-56
2021/12/25 07:19:25;;;;;;;7.04;4.41;;;;;;;;;;357169;149;856634;-56
2021/12/25 07:20:27;;;;;;;7.28;4.84;;;;;;;;;;358380;150;856743;-57
2021/12/25 07:21:29;;;;;;;9.42;5.42;;;;;;;;;;355612;150;863669;-56
2021/12/25 07:22:31;;;;;;;7.54;4.74;;;;;;;;;;356628;147;856675;-58